V/Λ SELECT: Month and Year
OR > Month
Monthly Climatological Summary for Jul 2012
Name: www.delerius-weather.com City: Winterton State: North Lincolnshire
Elevation: 42 m Lat: N 53° 39' 10" Lon: W 000° 36' 49"
Temperature (°C), Rain (mm), Wind Speed (mph)
Heat Cool Avg
Mean Deg Deg Wind Dom
Day Temp High Time Low Time Days Days Rain Speed High Time Dir
----------------------------------------------------------------------------------
1 13.1 16.7 21:00 9.4 02:15 14.4 0.0 0.4 1.3 18.0 15:45 S
2 12.6 16.3 21:00 10.6 02:15 14.4 0.0 1.0 4.3 24.0 09:15 SE
3 16.7 20.4 21:00 14.3 02:15 14.4 0.0 0.6 5.0 20.0 00:16 SSE
4 17.9 21.3 21:00 15.7 02:15 14.4 0.0 1.2 6.0 24.0 00:13 SE
5 17.6 21.0 21:00 13.6 02:15 14.4 0.0 0.6 4.8 18.0 00:14 SSE
6 15.8 20.1 21:00 12.7 02:15 14.4 0.0 1.8 4.2 22.0 00:11 SE
7 15.2 19.9 21:00 11.6 02:15 14.4 0.0 8.4 4.9 23.0 00:10 S
8 13.4 15.9 21:00 12.9 02:15 14.4 0.0 4.8 3.8 28.0 00:19 SE
9 13.9 17.7 21:00 10.6 02:15 14.4 0.0 4.8 2.9 19.0 00:12 SSE
10 12.8 13.8 21:00 11.9 02:15 14.4 0.0 9.0 3.2 25.0 00:15 S
11 13.8 18.6 21:00 10.0 02:15 14.4 0.0 4.6 3.3 27.0 14:00 WSW
12 12.1 19.6 21:00 7.9 02:15 14.4 0.0 6.6 6.9 18.0 07:45 SSE
13 13.2 17.6 21:00 10.8 02:15 14.4 0.0 0.0 3.4 20.0 16:45 NNE
14 13.1 16.1 21:00 11.5 02:15 14.4 0.0 0.6 3.0 22.0 11:00 SSE
15 14.8 20.4 21:00 9.4 02:15 14.4 0.0 0.0 4.0 23.0 18:00 SSE
16 13.6 18.0 21:00 9.7 02:15 14.4 0.0 2.0 2.5 19.0 02:45 S
17 14.8 22.2 21:00 11.7 02:15 14.4 0.0 2.2 1.6 21.0 09:45 SE
18 14.0 20.7 21:00 11.2 02:15 14.4 0.0 0.2 2.5 34.0 11:45 SSE
19 13.5 16.7 21:00 10.5 02:15 14.4 0.0 5.8 3.5 21.0 02:45 NNE
20 12.8 14.1 21:00 11.6 02:15 14.4 0.0 22.4 1.9 11.0 09:45 NE
21 13.9 19.9 21:00 8.4 02:15 14.4 0.0 0.0 1.5 19.0 15:30 ESE
22 15.7 22.8 21:00 10.8 02:15 14.4 0.0 1.0 2.4 25.0 14:45 SE
23 19.6 26.8 21:00 14.2 02:15 14.4 0.0 0.0 3.9 26.0 14:45 SE
24 18.4 25.6 21:00 13.8 02:15 14.4 0.0 0.2 1.3 18.0 18:30 ENE
25 16.2 20.3 21:00 12.6 02:15 14.4 0.0 1.0 1.0 19.0 19:00 NNE
26 15.4 17.6 21:00 13.7 02:15 14.4 0.0 0.2 1.3 18.0 23:00 E
27 15.6 21.0 21:00 12.8 02:15 14.4 0.0 0.2 1.1 19.0 18:15 S
28 14.8 20.7 21:00 10.1 02:15 14.4 0.0 0.0 1.7 18.0 12:30 SE
29 13.7 21.7 21:00 8.6 02:15 14.4 0.0 0.0 1.5 16.0 12:32 SSE
30 13.1 20.6 21:00 7.6 02:15 14.4 0.0 0.0 2.1 19.0 12:31 SSE
31 12.4 17.4 21:00 6.8 02:15 14.4 0.0 0.0 6.0 14.0 20:15 ESE
----------------------------------------------------------------------------------
14.6 26.8 1 6.8 1 446.4 0.0 91.6 3.2 34.0 18 SE
Max >= 27.0: 0
Max <= 0.0: 0
Min <= 0.0: 0
Min <= -18.0: 0
Max Rain: 49.0 on day 10
Days of Rain: 24 (>= 0.2 mm) 11 (>= 2.0 mm) 4 (>= 20.0 mm)
Heat Base: 18.3 Cool Base: 18.3 Method: Integration